sensor_id;sensor_type;location;lat;lon;timestamp;P1;durP1;ratioP1;P2;durP2;ratioP2
76409;SDS011;65238;42.662;23.280;2023-10-08T00:01:28;8.13;;;3.50;;
76409;SDS011;65238;42.662;23.280;2023-10-08T00:03:54;6.35;;;3.25;;
76409;SDS011;65238;42.662;23.280;2023-10-08T00:06:23;6.50;;;2.83;;
76409;SDS011;65238;42.662;23.280;2023-10-08T00:08:49;7.20;;;2.97;;
76409;SDS011;65238;42.662;23.280;2023-10-08T00:11:15;6.75;;;2.75;;
76409;SDS011;65238;42.662;23.280;2023-10-08T00:13:41;5.38;;;2.75;;
76409;SDS011;65238;42.662;23.280;2023-10-08T00:16:10;7.35;;;2.95;;
76409;SDS011;65238;42.662;23.280;2023-10-08T00:18:40;8.70;;;3.10;;
76409;SDS011;65238;42.662;23.280;2023-10-08T00:21:13;8.20;;;2.70;;
76409;SDS011;65238;42.662;23.280;2023-10-08T00:23:39;5.18;;;2.47;;
76409;SDS011;65238;42.662;23.280;2023-10-08T00:26:07;6.72;;;2.92;;
76409;SDS011;65238;42.662;23.280;2023-10-08T00:28:33;5.93;;;2.75;;
76409;SDS011;65238;42.662;23.280;2023-10-08T00:31:02;7.80;;;3.30;;
76409;SDS011;65238;42.662;23.280;2023-10-08T00:33:32;7.30;;;3.22;;
76409;SDS011;65238;42.662;23.280;2023-10-08T00:35:58;6.00;;;3.33;;
76409;SDS011;65238;42.662;23.280;2023-10-08T00:38:23;7.10;;;2.97;;
76409;SDS011;65238;42.662;23.280;2023-10-08T00:40:57;6.20;;;2.92;;
76409;SDS011;65238;42.662;23.280;2023-10-08T00:43:32;7.00;;;3.47;;
76409;SDS011;65238;42.662;23.280;2023-10-08T00:46:01;6.47;;;2.72;;
76409;SDS011;65238;42.662;23.280;2023-10-08T00:48:41;6.18;;;3.00;;
76409;SDS011;65238;42.662;23.280;2023-10-08T00:51:08;5.97;;;2.90;;
76409;SDS011;65238;42.662;23.280;2023-10-08T00:53:56;6.30;;;2.83;;
76409;SDS011;65238;42.662;23.280;2023-10-08T00:59:11;9.10;;;4.00;;
76409;SDS011;65238;42.662;23.280;2023-10-08T01:01:44;10.93;;;4.47;;
76409;SDS011;65238;42.662;23.280;2023-10-08T01:04:24;7.45;;;4.13;;
76409;SDS011;65238;42.662;23.280;2023-10-08T01:06:53;13.52;;;4.88;;
76409;SDS011;65238;42.662;23.280;2023-10-08T01:09:29;12.15;;;5.15;;
76409;SDS011;65238;42.662;23.280;2023-10-08T01:12:10;11.18;;;5.05;;
76409;SDS011;65238;42.662;23.280;2023-10-08T01:14:51;10.50;;;5.00;;
76409;SDS011;65238;42.662;23.280;2023-10-08T01:17:23;10.30;;;5.40;;
76409;SDS011;65238;42.662;23.280;2023-10-08T01:19:51;10.80;;;5.78;;
76409;SDS011;65238;42.662;23.280;2023-10-08T01:22:33;12.65;;;5.82;;
76409;SDS011;65238;42.662;23.280;2023-10-08T01:24:59;8.98;;;5.53;;
76409;SDS011;65238;42.662;23.280;2023-10-08T01:27:29;12.52;;;5.70;;
76409;SDS011;65238;42.662;23.280;2023-10-08T01:29:59;9.57;;;5.78;;
76409;SDS011;65238;42.662;23.280;2023-10-08T01:32:34;10.90;;;5.60;;
76409;SDS011;65238;42.662;23.280;2023-10-08T01:35:01;14.95;;;6.40;;
76409;SDS011;65238;42.662;23.280;2023-10-08T01:37:29;13.80;;;5.82;;
76409;SDS011;65238;42.662;23.280;2023-10-08T01:39:59;10.10;;;5.63;;
76409;SDS011;65238;42.662;23.280;2023-10-08T01:42:26;11.98;;;6.00;;
76409;SDS011;65238;42.662;23.280;2023-10-08T01:44:53;10.25;;;5.68;;
76409;SDS011;65238;42.662;23.280;2023-10-08T01:47:21;12.13;;;5.10;;
76409;SDS011;65238;42.662;23.280;2023-10-08T01:49:50;13.23;;;5.70;;
76409;SDS011;65238;42.662;23.280;2023-10-08T01:52:19;10.73;;;5.20;;
76409;SDS011;65238;42.662;23.280;2023-10-08T01:54:47;11.30;;;5.82;;
76409;SDS011;65238;42.662;23.280;2023-10-08T01:57:13;12.82;;;5.63;;
76409;SDS011;65238;42.662;23.280;2023-10-08T01:59:39;12.77;;;5.80;;
76409;SDS011;65238;42.662;23.280;2023-10-08T02:02:05;14.38;;;5.55;;
76409;SDS011;65238;42.662;23.280;2023-10-08T02:04:32;16.80;;;5.50;;
76409;SDS011;65238;42.662;23.280;2023-10-08T02:07:00;10.77;;;5.30;;
76409;SDS011;65238;42.662;23.280;2023-10-08T02:09:26;10.38;;;5.10;;
76409;SDS011;65238;42.662;23.280;2023-10-08T02:11:52;12.05;;;4.78;;
76409;SDS011;65238;42.662;23.280;2023-10-08T02:14:22;10.68;;;5.43;;
76409;SDS011;65238;42.662;23.280;2023-10-08T02:16:48;12.00;;;5.63;;
76409;SDS011;65238;42.662;23.280;2023-10-08T02:19:21;11.57;;;5.68;;
76409;SDS011;65238;42.662;23.280;2023-10-08T02:21:52;13.85;;;5.55;;
76409;SDS011;65238;42.662;23.280;2023-10-08T02:24:21;10.70;;;5.13;;
76409;SDS011;65238;42.662;23.280;2023-10-08T02:26:49;8.65;;;4.93;;
76409;SDS011;65238;42.662;23.280;2023-10-08T02:29:18;10.10;;;5.68;;
76409;SDS011;65238;42.662;23.280;2023-10-08T02:31:43;14.00;;;5.78;;
76409;SDS011;65238;42.662;23.280;2023-10-08T02:34:09;10.38;;;4.90;;
76409;SDS011;65238;42.662;23.280;2023-10-08T02:36:36;9.95;;;4.93;;
76409;SDS011;65238;42.662;23.280;2023-10-08T02:39:02;10.38;;;5.53;;
76409;SDS011;65238;42.662;23.280;2023-10-08T02:41:32;12.80;;;5.35;;
76409;SDS011;65238;42.662;23.280;2023-10-08T02:43:57;8.45;;;4.57;;
76409;SDS011;65238;42.662;23.280;2023-10-08T02:46:24;12.02;;;5.35;;
76409;SDS011;65238;42.662;23.280;2023-10-08T02:48:52;11.77;;;5.43;;
76409;SDS011;65238;42.662;23.280;2023-10-08T02:51:17;13.50;;;5.38;;
76409;SDS011;65238;42.662;23.280;2023-10-08T02:53:45;9.77;;;4.95;;
76409;SDS011;65238;42.662;23.280;2023-10-08T02:56:12;11.45;;;5.30;;
76409;SDS011;65238;42.662;23.280;2023-10-08T02:58:41;13.30;;;4.70;;
76409;SDS011;65238;42.662;23.280;2023-10-08T03:01:11;11.90;;;4.97;;
76409;SDS011;65238;42.662;23.280;2023-10-08T03:03:38;14.20;;;5.13;;
76409;SDS011;65238;42.662;23.280;2023-10-08T03:06:05;12.45;;;5.30;;
76409;SDS011;65238;42.662;23.280;2023-10-08T03:08:36;15.93;;;5.63;;
76409;SDS011;65238;42.662;23.280;2023-10-08T03:11:04;10.93;;;5.22;;
76409;SDS011;65238;42.662;23.280;2023-10-08T03:13:31;9.68;;;4.93;;
76409;SDS011;65238;42.662;23.280;2023-10-08T03:15:57;9.13;;;5.03;;
76409;SDS011;65238;42.662;23.280;2023-10-08T03:18:25;9.32;;;4.78;;
76409;SDS011;65238;42.662;23.280;2023-10-08T03:21:00;10.27;;;5.35;;
76409;SDS011;65238;42.662;23.280;2023-10-08T03:23:29;8.85;;;4.80;;
76409;SDS011;65238;42.662;23.280;2023-10-08T03:26:02;10.60;;;5.43;;
76409;SDS011;65238;42.662;23.280;2023-10-08T03:28:29;11.65;;;5.20;;
76409;SDS011;65238;42.662;23.280;2023-10-08T03:30:55;10.13;;;5.18;;
76409;SDS011;65238;42.662;23.280;2023-10-08T03:33:32;9.73;;;4.75;;
76409;SDS011;65238;42.662;23.280;2023-10-08T03:36:02;8.40;;;4.70;;
76409;SDS011;65238;42.662;23.280;2023-10-08T03:38:36;10.73;;;4.57;;
76409;SDS011;65238;42.662;23.280;2023-10-08T03:41:16;12.50;;;4.95;;
76409;SDS011;65238;42.662;23.280;2023-10-08T03:43:43;13.32;;;5.35;;
76409;SDS011;65238;42.662;23.280;2023-10-08T03:46:19;13.32;;;5.85;;
76409;SDS011;65238;42.662;23.280;2023-10-08T03:48:46;10.05;;;5.32;;
76409;SDS011;65238;42.662;23.280;2023-10-08T03:51:15;11.05;;;5.40;;
76409;SDS011;65238;42.662;23.280;2023-10-08T03:53:44;12.68;;;5.18;;
76409;SDS011;65238;42.662;23.280;2023-10-08T03:56:28;9.52;;;5.30;;
76409;SDS011;65238;42.662;23.280;2023-10-08T03:58:59;11.40;;;4.72;;
76409;SDS011;65238;42.662;23.280;2023-10-08T04:01:45;12.23;;;4.85;;
76409;SDS011;65238;42.662;23.280;2023-10-08T04:04:13;12.60;;;6.20;;
76409;SDS011;65238;42.662;23.280;2023-10-08T04:06:39;14.27;;;6.35;;
76409;SDS011;65238;42.662;23.280;2023-10-08T04:09:15;12.98;;;6.07;;
76409;SDS011;65238;42.662;23.280;2023-10-08T04:11:51;12.63;;;5.32;;
76409;SDS011;65238;42.662;23.280;2023-10-08T04:14:24;9.75;;;5.60;;
76409;SDS011;65238;42.662;23.280;2023-10-08T04:16:50;13.25;;;5.88;;
76409;SDS011;65238;42.662;23.280;2023-10-08T04:19:19;9.38;;;5.03;;
76409;SDS011;65238;42.662;23.280;2023-10-08T04:21:46;10.40;;;5.40;;
76409;SDS011;65238;42.662;23.280;2023-10-08T04:24:20;10.32;;;5.10;;
76409;SDS011;65238;42.662;23.280;2023-10-08T04:26:53;12.73;;;5.07;;
76409;SDS011;65238;42.662;23.280;2023-10-08T04:29:21;12.55;;;5.53;;
76409;SDS011;65238;42.662;23.280;2023-10-08T04:31:47;10.98;;;5.60;;
76409;SDS011;65238;42.662;23.280;2023-10-08T04:34:19;10.80;;;5.50;;
76409;SDS011;65238;42.662;23.280;2023-10-08T04:36:48;13.85;;;6.25;;
76409;SDS011;65238;42.662;23.280;2023-10-08T04:39:22;13.48;;;5.78;;
76409;SDS011;65238;42.662;23.280;2023-10-08T04:41:51;10.50;;;5.45;;
76409;SDS011;65238;42.662;23.280;2023-10-08T04:46:51;11.45;;;5.90;;
76409;SDS011;65238;42.662;23.280;2023-10-08T04:49:19;11.85;;;5.88;;
76409;SDS011;65238;42.662;23.280;2023-10-08T04:54:30;14.43;;;5.82;;
76409;SDS011;65238;42.662;23.280;2023-10-08T04:56:59;12.85;;;6.13;;
76409;SDS011;65238;42.662;23.280;2023-10-08T04:59:28;10.85;;;5.88;;
76409;SDS011;65238;42.662;23.280;2023-10-08T05:02:00;10.85;;;5.57;;
76409;SDS011;65238;42.662;23.280;2023-10-08T05:04:46;14.23;;;5.70;;
76409;SDS011;65238;42.662;23.280;2023-10-08T05:07:25;10.82;;;5.32;;
76409;SDS011;65238;42.662;23.280;2023-10-08T05:10:10;11.02;;;5.60;;
76409;SDS011;65238;42.662;23.280;2023-10-08T05:12:35;14.38;;;6.22;;
76409;SDS011;65238;42.662;23.280;2023-10-08T05:15:15;13.35;;;5.47;;
76409;SDS011;65238;42.662;23.280;2023-10-08T05:17:41;11.95;;;5.30;;
76409;SDS011;65238;42.662;23.280;2023-10-08T05:20:17;14.63;;;5.65;;
76409;SDS011;65238;42.662;23.280;2023-10-08T05:23:05;12.20;;;5.15;;
76409;SDS011;65238;42.662;23.280;2023-10-08T05:25:50;10.60;;;6.25;;
76409;SDS011;65238;42.662;23.280;2023-10-08T05:28:32;12.23;;;5.35;;
76409;SDS011;65238;42.662;23.280;2023-10-08T05:31:07;11.77;;;5.65;;
76409;SDS011;65238;42.662;23.280;2023-10-08T05:33:39;14.20;;;6.05;;
76409;SDS011;65238;42.662;23.280;2023-10-08T05:36:23;9.30;;;5.22;;
76409;SDS011;65238;42.662;23.280;2023-10-08T05:39:15;10.40;;;5.45;;
76409;SDS011;65238;42.662;23.280;2023-10-08T05:41:50;11.63;;;5.07;;
76409;SDS011;65238;42.662;23.280;2023-10-08T05:44:17;11.82;;;6.05;;
76409;SDS011;65238;42.662;23.280;2023-10-08T05:46:42;12.05;;;5.75;;
76409;SDS011;65238;42.662;23.280;2023-10-08T05:49:31;11.18;;;5.70;;
76409;SDS011;65238;42.662;23.280;2023-10-08T05:51:57;14.75;;;5.50;;
76409;SDS011;65238;42.662;23.280;2023-10-08T05:57:16;13.15;;;6.07;;
76409;SDS011;65238;42.662;23.280;2023-10-08T06:00:00;15.43;;;5.63;;
76409;SDS011;65238;42.662;23.280;2023-10-08T06:02:26;11.63;;;4.95;;
76409;SDS011;65238;42.662;23.280;2023-10-08T06:04:59;10.63;;;5.22;;
76409;SDS011;65238;42.662;23.280;2023-10-08T06:12:59;13.52;;;6.07;;
76409;SDS011;65238;42.662;23.280;2023-10-08T06:15:34;10.73;;;5.95;;
76409;SDS011;65238;42.662;23.280;2023-10-08T06:18:13;16.98;;;5.95;;
76409;SDS011;65238;42.662;23.280;2023-10-08T06:20:42;11.48;;;5.88;;
76409;SDS011;65238;42.662;23.280;2023-10-08T06:23:12;12.95;;;5.78;;
76409;SDS011;65238;42.662;23.280;2023-10-08T06:25:41;15.52;;;6.45;;
76409;SDS011;65238;42.662;23.280;2023-10-08T06:28:16;11.57;;;5.85;;
76409;SDS011;65238;42.662;23.280;2023-10-08T06:30:44;17.13;;;9.13;;
76409;SDS011;65238;42.662;23.280;2023-10-08T06:33:14;16.92;;;6.70;;
76409;SDS011;65238;42.662;23.280;2023-10-08T06:35:41;13.02;;;6.47;;
76409;SDS011;65238;42.662;23.280;2023-10-08T06:38:10;12.98;;;6.63;;
76409;SDS011;65238;42.662;23.280;2023-10-08T06:40:36;15.00;;;6.47;;
76409;SDS011;65238;42.662;23.280;2023-10-08T06:43:02;15.38;;;6.28;;
76409;SDS011;65238;42.662;23.280;2023-10-08T06:45:40;12.60;;;6.72;;
76409;SDS011;65238;42.662;23.280;2023-10-08T06:48:08;13.52;;;6.50;;
76409;SDS011;65238;42.662;23.280;2023-10-08T06:50:33;15.05;;;6.40;;
76409;SDS011;65238;42.662;23.280;2023-10-08T06:53:04;16.33;;;6.90;;
76409;SDS011;65238;42.662;23.280;2023-10-08T06:55:36;16.05;;;6.80;;
76409;SDS011;65238;42.662;23.280;2023-10-08T06:58:02;10.27;;;5.63;;
76409;SDS011;65238;42.662;23.280;2023-10-08T07:00:34;17.35;;;6.75;;
76409;SDS011;65238;42.662;23.280;2023-10-08T07:03:11;10.80;;;6.68;;
76409;SDS011;65238;42.662;23.280;2023-10-08T07:05:45;16.00;;;6.75;;
76409;SDS011;65238;42.662;23.280;2023-10-08T07:08:25;16.10;;;6.93;;
76409;SDS011;65238;42.662;23.280;2023-10-08T07:10:54;16.70;;;7.63;;
76409;SDS011;65238;42.662;23.280;2023-10-08T07:13:21;14.65;;;7.30;;
76409;SDS011;65238;42.662;23.280;2023-10-08T07:15:48;18.08;;;7.20;;
76409;SDS011;65238;42.662;23.280;2023-10-08T07:18:14;11.40;;;5.65;;
76409;SDS011;65238;42.662;23.280;2023-10-08T07:20:40;12.80;;;7.78;;
76409;SDS011;65238;42.662;23.280;2023-10-08T07:23:10;8.53;;;5.17;;
76409;SDS011;65238;42.662;23.280;2023-10-08T07:25:56;7.68;;;4.03;;
76409;SDS011;65238;42.662;23.280;2023-10-08T07:28:41;6.80;;;3.55;;
76409;SDS011;65238;42.662;23.280;2023-10-08T07:31:13;11.90;;;4.00;;
76409;SDS011;65238;42.662;23.280;2023-10-08T07:33:40;7.47;;;3.63;;
76409;SDS011;65238;42.662;23.280;2023-10-08T07:36:10;7.18;;;3.60;;
76409;SDS011;65238;42.662;23.280;2023-10-08T07:38:42;8.35;;;2.85;;
76409;SDS011;65238;42.662;23.280;2023-10-08T07:41:12;5.32;;;3.10;;
76409;SDS011;65238;42.662;23.280;2023-10-08T07:43:39;7.35;;;3.63;;
76409;SDS011;65238;42.662;23.280;2023-10-08T07:46:07;8.07;;;3.67;;
76409;SDS011;65238;42.662;23.280;2023-10-08T07:48:32;8.55;;;3.38;;
76409;SDS011;65238;42.662;23.280;2023-10-08T07:50:58;6.40;;;3.38;;
76409;SDS011;65238;42.662;23.280;2023-10-08T07:53:23;5.80;;;3.30;;
76409;SDS011;65238;42.662;23.280;2023-10-08T07:55:50;7.13;;;3.40;;
76409;SDS011;65238;42.662;23.280;2023-10-08T07:58:16;7.60;;;3.30;;
76409;SDS011;65238;42.662;23.280;2023-10-08T08:00:43;6.07;;;3.13;;
76409;SDS011;65238;42.662;23.280;2023-10-08T08:03:17;7.13;;;3.63;;
76409;SDS011;65238;42.662;23.280;2023-10-08T08:05:43;5.47;;;2.83;;
76409;SDS011;65238;42.662;23.280;2023-10-08T08:08:09;6.30;;;3.35;;
76409;SDS011;65238;42.662;23.280;2023-10-08T08:10:39;8.30;;;3.90;;
76409;SDS011;65238;42.662;23.280;2023-10-08T08:13:07;7.70;;;3.03;;
76409;SDS011;65238;42.662;23.280;2023-10-08T08:15:33;6.47;;;3.53;;
76409;SDS011;65238;42.662;23.280;2023-10-08T08:18:01;7.15;;;3.25;;
76409;SDS011;65238;42.662;23.280;2023-10-08T08:20:30;11.10;;;3.42;;
76409;SDS011;65238;42.662;23.280;2023-10-08T08:23:08;5.68;;;3.45;;
76409;SDS011;65238;42.662;23.280;2023-10-08T08:25:38;5.07;;;3.03;;
76409;SDS011;65238;42.662;23.280;2023-10-08T08:28:23;7.90;;;4.35;;
76409;SDS011;65238;42.662;23.280;2023-10-08T08:30:50;9.73;;;4.55;;
76409;SDS011;65238;42.662;23.280;2023-10-08T08:33:17;7.30;;;4.07;;
76409;SDS011;65238;42.662;23.280;2023-10-08T08:35:57;8.93;;;3.30;;
76409;SDS011;65238;42.662;23.280;2023-10-08T08:38:30;11.38;;;4.18;;
76409;SDS011;65238;42.662;23.280;2023-10-08T08:41:06;6.25;;;3.28;;
76409;SDS011;65238;42.662;23.280;2023-10-08T08:43:35;15.52;;;4.00;;
76409;SDS011;65238;42.662;23.280;2023-10-08T08:46:04;8.98;;;3.63;;
76409;SDS011;65238;42.662;23.280;2023-10-08T08:48:32;8.88;;;4.07;;
76409;SDS011;65238;42.662;23.280;2023-10-08T08:50:59;8.02;;;3.70;;
76409;SDS011;65238;42.662;23.280;2023-10-08T08:53:25;9.95;;;4.28;;
76409;SDS011;65238;42.662;23.280;2023-10-08T08:55:51;9.88;;;3.95;;
76409;SDS011;65238;42.662;23.280;2023-10-08T08:58:17;11.90;;;4.07;;
76409;SDS011;65238;42.662;23.280;2023-10-08T09:00:44;13.55;;;4.07;;
76409;SDS011;65238;42.662;23.280;2023-10-08T09:03:12;17.00;;;4.40;;
76409;SDS011;65238;42.662;23.280;2023-10-08T09:05:38;10.55;;;3.97;;
76409;SDS011;65238;42.662;23.280;2023-10-08T09:08:06;9.43;;;4.30;;
76409;SDS011;65238;42.662;23.280;2023-10-08T09:10:33;11.57;;;4.07;;
76409;SDS011;65238;42.662;23.280;2023-10-08T09:13:03;15.95;;;4.22;;
76409;SDS011;65238;42.662;23.280;2023-10-08T09:15:29;9.27;;;3.90;;
76409;SDS011;65238;42.662;23.280;2023-10-08T09:17:57;8.63;;;3.53;;
76409;SDS011;65238;42.662;23.280;2023-10-08T09:20:26;11.90;;;4.05;;
76409;SDS011;65238;42.662;23.280;2023-10-08T09:23:09;10.55;;;4.05;;
76409;SDS011;65238;42.662;23.280;2023-10-08T09:25:39;9.10;;;3.47;;
76409;SDS011;65238;42.662;23.280;2023-10-08T09:28:05;8.38;;;4.00;;
76409;SDS011;65238;42.662;23.280;2023-10-08T09:30:33;13.95;;;3.95;;
76409;SDS011;65238;42.662;23.280;2023-10-08T09:33:07;9.38;;;3.97;;
76409;SDS011;65238;42.662;23.280;2023-10-08T09:35:33;11.50;;;4.20;;
76409;SDS011;65238;42.662;23.280;2023-10-08T09:37:59;7.32;;;3.83;;
76409;SDS011;65238;42.662;23.280;2023-10-08T09:40:28;7.55;;;3.35;;
76409;SDS011;65238;42.662;23.280;2023-10-08T09:42:54;8.00;;;4.00;;
76409;SDS011;65238;42.662;23.280;2023-10-08T09:45:20;12.30;;;5.07;;
76409;SDS011;65238;42.662;23.280;2023-10-08T09:47:50;20.42;;;4.18;;
76409;SDS011;65238;42.662;23.280;2023-10-08T09:50:31;5.88;;;3.45;;
76409;SDS011;65238;42.662;23.280;2023-10-08T09:55:26;12.30;;;4.60;;
76409;SDS011;65238;42.662;23.280;2023-10-08T09:57:52;10.10;;;3.53;;
76409;SDS011;65238;42.662;23.280;2023-10-08T10:00:20;6.80;;;3.88;;
76409;SDS011;65238;42.662;23.280;2023-10-08T10:02:55;6.80;;;3.85;;
76409;SDS011;65238;42.662;23.280;2023-10-08T10:05:31;6.18;;;3.67;;
76409;SDS011;65238;42.662;23.280;2023-10-08T10:07:57;7.72;;;4.38;;
76409;SDS011;65238;42.662;23.280;2023-10-08T10:10:29;8.02;;;4.45;;
76409;SDS011;65238;42.662;23.280;2023-10-08T10:13:03;7.90;;;3.85;;
76409;SDS011;65238;42.662;23.280;2023-10-08T10:15:31;6.45;;;3.88;;
76409;SDS011;65238;42.662;23.280;2023-10-08T10:23:38;7.82;;;3.20;;
76409;SDS011;65238;42.662;23.280;2023-10-08T10:31:43;7.35;;;3.75;;
76409;SDS011;65238;42.662;23.280;2023-10-08T10:34:13;6.68;;;2.80;;
76409;SDS011;65238;42.662;23.280;2023-10-08T10:36:41;6.07;;;3.20;;
76409;SDS011;65238;42.662;23.280;2023-10-08T10:39:07;11.93;;;4.03;;
76409;SDS011;65238;42.662;23.280;2023-10-08T10:41:51;8.35;;;3.42;;
76409;SDS011;65238;42.662;23.280;2023-10-08T10:44:27;7.68;;;3.35;;
76409;SDS011;65238;42.662;23.280;2023-10-08T10:46:54;7.57;;;3.58;;
76409;SDS011;65238;42.662;23.280;2023-10-08T10:49:39;7.25;;;3.28;;
76409;SDS011;65238;42.662;23.280;2023-10-08T10:52:24;8.85;;;3.55;;
76409;SDS011;65238;42.662;23.280;2023-10-08T10:55:19;7.32;;;3.25;;
76409;SDS011;65238;42.662;23.280;2023-10-08T10:57:48;7.72;;;2.85;;
76409;SDS011;65238;42.662;23.280;2023-10-08T11:00:21;8.23;;;3.30;;
76409;SDS011;65238;42.662;23.280;2023-10-08T11:03:13;5.25;;;3.10;;
76409;SDS011;65238;42.662;23.280;2023-10-08T11:05:42;5.28;;;3.20;;
76409;SDS011;65238;42.662;23.280;2023-10-08T11:10:40;6.20;;;2.55;;
76409;SDS011;65238;42.662;23.280;2023-10-08T11:13:13;4.93;;;2.80;;
76409;SDS011;65238;42.662;23.280;2023-10-08T11:15:45;5.93;;;3.17;;
76409;SDS011;65238;42.662;23.280;2023-10-08T11:18:24;6.78;;;3.10;;
76409;SDS011;65238;42.662;23.280;2023-10-08T11:20:53;5.97;;;3.20;;
76409;SDS011;65238;42.662;23.280;2023-10-08T11:23:42;5.15;;;3.00;;
76409;SDS011;65238;42.662;23.280;2023-10-08T11:26:12;6.93;;;3.45;;
76409;SDS011;65238;42.662;23.280;2023-10-08T11:28:40;9.35;;;3.63;;
76409;SDS011;65238;42.662;23.280;2023-10-08T11:31:12;6.65;;;3.20;;
76409;SDS011;65238;42.662;23.280;2023-10-08T11:33:42;10.82;;;3.10;;
76409;SDS011;65238;42.662;23.280;2023-10-08T11:36:19;9.55;;;3.30;;
76409;SDS011;65238;42.662;23.280;2023-10-08T11:38:45;14.57;;;3.47;;
76409;SDS011;65238;42.662;23.280;2023-10-08T11:41:15;11.65;;;2.78;;
76409;SDS011;65238;42.662;23.280;2023-10-08T11:43:51;13.10;;;3.30;;
76409;SDS011;65238;42.662;23.280;2023-10-08T11:46:24;11.40;;;3.10;;
76409;SDS011;65238;42.662;23.280;2023-10-08T11:48:51;12.02;;;3.08;;
76409;SDS011;65238;42.662;23.280;2023-10-08T11:51:17;13.05;;;3.10;;
76409;SDS011;65238;42.662;23.280;2023-10-08T11:53:43;56.38;;;6.55;;
76409;SDS011;65238;42.662;23.280;2023-10-08T11:56:10;14.43;;;3.22;;
76409;SDS011;65238;42.662;23.280;2023-10-08T11:58:39;17.50;;;3.50;;
76409;SDS011;65238;42.662;23.280;2023-10-08T12:01:05;13.90;;;3.25;;
76409;SDS011;65238;42.662;23.280;2023-10-08T12:03:31;13.10;;;3.60;;
76409;SDS011;65238;42.662;23.280;2023-10-08T12:06:00;9.32;;;3.47;;
76409;SDS011;65238;42.662;23.280;2023-10-08T12:08:25;12.95;;;3.42;;
76409;SDS011;65238;42.662;23.280;2023-10-08T12:10:54;10.50;;;2.90;;
76409;SDS011;65238;42.662;23.280;2023-10-08T12:13:19;11.45;;;3.88;;
76409;SDS011;65238;42.662;23.280;2023-10-08T12:15:54;8.50;;;3.40;;
76409;SDS011;65238;42.662;23.280;2023-10-08T12:18:31;7.97;;;3.45;;
76409;SDS011;65238;42.662;23.280;2023-10-08T12:21:04;16.23;;;6.63;;
76409;SDS011;65238;42.662;23.280;2023-10-08T12:23:30;10.77;;;4.38;;
76409;SDS011;65238;42.662;23.280;2023-10-08T12:25:58;10.18;;;3.70;;
76409;SDS011;65238;42.662;23.280;2023-10-08T12:28:25;8.07;;;3.45;;
76409;SDS011;65238;42.662;23.280;2023-10-08T12:30:52;7.40;;;3.40;;
76409;SDS011;65238;42.662;23.280;2023-10-08T12:33:18;11.52;;;3.72;;
76409;SDS011;65238;42.662;23.280;2023-10-08T12:35:44;11.43;;;3.45;;
76409;SDS011;65238;42.662;23.280;2023-10-08T12:38:12;11.50;;;3.80;;
76409;SDS011;65238;42.662;23.280;2023-10-08T12:40:39;12.75;;;3.60;;
76409;SDS011;65238;42.662;23.280;2023-10-08T12:43:12;17.40;;;4.20;;
76409;SDS011;65238;42.662;23.280;2023-10-08T12:45:44;10.10;;;3.40;;
76409;SDS011;65238;42.662;23.280;2023-10-08T12:50:52;6.95;;;3.05;;
76409;SDS011;65238;42.662;23.280;2023-10-08T12:53:22;13.27;;;3.53;;
76409;SDS011;65238;42.662;23.280;2023-10-08T12:55:52;16.17;;;4.35;;
76409;SDS011;65238;42.662;23.280;2023-10-08T12:58:19;12.35;;;3.47;;
76409;SDS011;65238;42.662;23.280;2023-10-08T13:00:48;11.38;;;3.35;;
76409;SDS011;65238;42.662;23.280;2023-10-08T13:03:21;9.40;;;3.58;;
76409;SDS011;65238;42.662;23.280;2023-10-08T13:05:48;8.50;;;3.40;;
76409;SDS011;65238;42.662;23.280;2023-10-08T13:08:18;12.13;;;3.35;;
76409;SDS011;65238;42.662;23.280;2023-10-08T13:10:45;8.98;;;3.15;;
76409;SDS011;65238;42.662;23.280;2023-10-08T13:13:11;15.07;;;3.60;;
76409;SDS011;65238;42.662;23.280;2023-10-08T13:15:37;10.13;;;3.55;;
76409;SDS011;65238;42.662;23.280;2023-10-08T13:18:03;10.23;;;3.15;;
76409;SDS011;65238;42.662;23.280;2023-10-08T13:20:29;10.68;;;3.40;;
76409;SDS011;65238;42.662;23.280;2023-10-08T13:23:02;13.43;;;3.63;;
76409;SDS011;65238;42.662;23.280;2023-10-08T13:25:29;11.60;;;3.28;;
76409;SDS011;65238;42.662;23.280;2023-10-08T13:27:58;11.73;;;4.50;;
76409;SDS011;65238;42.662;23.280;2023-10-08T13:30:25;15.10;;;4.30;;
76409;SDS011;65238;42.662;23.280;2023-10-08T13:32:52;16.63;;;4.22;;
76409;SDS011;65238;42.662;23.280;2023-10-08T13:35:18;10.93;;;4.18;;
76409;SDS011;65238;42.662;23.280;2023-10-08T13:37:44;17.83;;;3.90;;
76409;SDS011;65238;42.662;23.280;2023-10-08T13:40:11;12.48;;;3.85;;
76409;SDS011;65238;42.662;23.280;2023-10-08T13:42:40;13.00;;;3.42;;
76409;SDS011;65238;42.662;23.280;2023-10-08T13:45:06;9.95;;;3.13;;
76409;SDS011;65238;42.662;23.280;2023-10-08T13:47:34;12.75;;;3.20;;
76409;SDS011;65238;42.662;23.280;2023-10-08T13:49:59;9.57;;;3.08;;
76409;SDS011;65238;42.662;23.280;2023-10-08T13:52:25;11.50;;;3.15;;
76409;SDS011;65238;42.662;23.280;2023-10-08T13:54:52;22.90;;;8.63;;
76409;SDS011;65238;42.662;23.280;2023-10-08T13:57:19;13.48;;;4.53;;
76409;SDS011;65238;42.662;23.280;2023-10-08T13:59:45;10.70;;;3.17;;
76409;SDS011;65238;42.662;23.280;2023-10-08T14:02:11;10.70;;;3.03;;
76409;SDS011;65238;42.662;23.280;2023-10-08T14:04:43;13.55;;;3.45;;
76409;SDS011;65238;42.662;23.280;2023-10-08T14:07:12;11.25;;;2.92;;
76409;SDS011;65238;42.662;23.280;2023-10-08T14:09:42;8.63;;;3.53;;
76409;SDS011;65238;42.662;23.280;2023-10-08T14:12:11;9.85;;;3.20;;
76409;SDS011;65238;42.662;23.280;2023-10-08T14:14:38;11.13;;;3.80;;
76409;SDS011;65238;42.662;23.280;2023-10-08T14:17:08;13.80;;;3.22;;
76409;SDS011;65238;42.662;23.280;2023-10-08T14:19:39;9.95;;;3.33;;
76409;SDS011;65238;42.662;23.280;2023-10-08T14:22:11;14.80;;;3.70;;
76409;SDS011;65238;42.662;23.280;2023-10-08T14:24:39;11.20;;;3.45;;
76409;SDS011;65238;42.662;23.280;2023-10-08T14:27:04;12.80;;;4.10;;
76409;SDS011;65238;42.662;23.280;2023-10-08T14:29:40;9.63;;;3.63;;
76409;SDS011;65238;42.662;23.280;2023-10-08T14:32:06;18.25;;;3.85;;
76409;SDS011;65238;42.662;23.280;2023-10-08T14:34:34;21.65;;;3.10;;
76409;SDS011;65238;42.662;23.280;2023-10-08T14:37:11;18.15;;;2.80;;
76409;SDS011;65238;42.662;23.280;2023-10-08T14:39:55;19.73;;;3.05;;
76409;SDS011;65238;42.662;23.280;2023-10-08T14:42:39;18.35;;;3.15;;
76409;SDS011;65238;42.662;23.280;2023-10-08T14:45:24;16.20;;;3.78;;
76409;SDS011;65238;42.662;23.280;2023-10-08T14:47:52;21.47;;;4.30;;
76409;SDS011;65238;42.662;23.280;2023-10-08T14:50:21;13.30;;;3.08;;
76409;SDS011;65238;42.662;23.280;2023-10-08T14:52:47;19.40;;;3.70;;
76409;SDS011;65238;42.662;23.280;2023-10-08T14:55:13;15.52;;;4.45;;
76409;SDS011;65238;42.662;23.280;2023-10-08T14:57:40;21.50;;;4.68;;
76409;SDS011;65238;42.662;23.280;2023-10-08T15:00:07;25.75;;;5.03;;
76409;SDS011;65238;42.662;23.280;2023-10-08T15:02:33;15.98;;;3.88;;
76409;SDS011;65238;42.662;23.280;2023-10-08T15:04:59;14.75;;;3.50;;
76409;SDS011;65238;42.662;23.280;2023-10-08T15:07:26;13.35;;;3.33;;
76409;SDS011;65238;42.662;23.280;2023-10-08T15:09:53;11.27;;;3.33;;
76409;SDS011;65238;42.662;23.280;2023-10-08T15:12:22;9.02;;;3.08;;
76409;SDS011;65238;42.662;23.280;2023-10-08T15:14:50;8.68;;;3.60;;
76409;SDS011;65238;42.662;23.280;2023-10-08T15:17:16;12.85;;;3.70;;
76409;SDS011;65238;42.662;23.280;2023-10-08T15:19:42;16.27;;;4.20;;